sensor_id;sensor_type;location;lat;lon;timestamp;temperature;humidity
27671;DHT22;15077;49.704;9.908;2023-02-18T00:01:16;13.70;76.10
27671;DHT22;15077;49.704;9.908;2023-02-18T00:03:44;13.70;76.00
27671;DHT22;15077;49.704;9.908;2023-02-18T00:08:48;13.70;76.80
27671;DHT22;15077;49.704;9.908;2023-02-18T00:11:16;13.70;76.10
27671;DHT22;15077;49.704;9.908;2023-02-18T00:13:48;13.70;76.10
27671;DHT22;15077;49.704;9.908;2023-02-18T00:16:17;13.70;76.10
27671;DHT22;15077;49.704;9.908;2023-02-18T00:18:43;13.70;76.20
27671;DHT22;15077;49.704;9.908;2023-02-18T00:21:09;13.70;76.20
27671;DHT22;15077;49.704;9.908;2023-02-18T00:23:35;13.70;76.20
27671;DHT22;15077;49.704;9.908;2023-02-18T00:26:07;13.70;76.20
27671;DHT22;15077;49.704;9.908;2023-02-18T00:28:35;13.70;76.40
27671;DHT22;15077;49.704;9.908;2023-02-18T00:31:15;13.70;76.20
27671;DHT22;15077;49.704;9.908;2023-02-18T00:33:43;13.70;76.40
27671;DHT22;15077;49.704;9.908;2023-02-18T00:36:12;13.70;76.30
27671;DHT22;15077;49.704;9.908;2023-02-18T00:38:43;13.80;76.40
27671;DHT22;15077;49.704;9.908;2023-02-18T00:41:10;13.70;76.50
27671;DHT22;15077;49.704;9.908;2023-02-18T00:43:36;13.70;76.50
27671;DHT22;15077;49.704;9.908;2023-02-18T00:46:02;13.70;76.60
27671;DHT22;15077;49.704;9.908;2023-02-18T00:48:27;13.70;76.70
27671;DHT22;15077;49.704;9.908;2023-02-18T00:50:53;13.70;76.70
27671;DHT22;15077;49.704;9.908;2023-02-18T00:53:19;13.70;76.70
27671;DHT22;15077;49.704;9.908;2023-02-18T00:55:48;13.70;76.90
27671;DHT22;15077;49.704;9.908;2023-02-18T00:58:14;13.70;76.90
27671;DHT22;15077;49.704;9.908;2023-02-18T01:00:40;13.60;76.90
27671;DHT22;15077;49.704;9.908;2023-02-18T01:03:08;13.60;77.00
27671;DHT22;15077;49.704;9.908;2023-02-18T01:05:37;13.60;77.10
27671;DHT22;15077;49.704;9.908;2023-02-18T01:08:04;13.60;77.20
27671;DHT22;15077;49.704;9.908;2023-02-18T01:10:30;13.60;77.20
27671;DHT22;15077;49.704;9.908;2023-02-18T01:12:57;13.60;77.20
27671;DHT22;15077;49.704;9.908;2023-02-18T01:15:23;13.60;77.30
27671;DHT22;15077;49.704;9.908;2023-02-18T01:17:50;13.60;77.20
27671;DHT22;15077;49.704;9.908;2023-02-18T01:20:18;13.60;77.30
27671;DHT22;15077;49.704;9.908;2023-02-18T01:22:44;13.60;77.50
27671;DHT22;15077;49.704;9.908;2023-02-18T01:25:10;13.60;77.40
27671;DHT22;15077;49.704;9.908;2023-02-18T01:27:38;13.60;77.50
27671;DHT22;15077;49.704;9.908;2023-02-18T01:30:05;13.50;77.50
27671;DHT22;15077;49.704;9.908;2023-02-18T01:32:32;13.50;77.50
27671;DHT22;15077;49.704;9.908;2023-02-18T01:35:00;13.50;77.50
27671;DHT22;15077;49.704;9.908;2023-02-18T01:37:28;13.50;77.60
27671;DHT22;15077;49.704;9.908;2023-02-18T01:39:54;13.50;77.70
27671;DHT22;15077;49.704;9.908;2023-02-18T01:42:22;13.50;77.60
27671;DHT22;15077;49.704;9.908;2023-02-18T01:44:50;13.50;77.70
27671;DHT22;15077;49.704;9.908;2023-02-18T01:47:16;13.50;77.70
27671;DHT22;15077;49.704;9.908;2023-02-18T01:49:45;13.50;77.80
27671;DHT22;15077;49.704;9.908;2023-02-18T01:52:23;13.50;77.80
27671;DHT22;15077;49.704;9.908;2023-02-18T01:54:56;13.50;78.10
27671;DHT22;15077;49.704;9.908;2023-02-18T01:57:28;13.50;78.00
27671;DHT22;15077;49.704;9.908;2023-02-18T02:00:06;13.50;78.00
27671;DHT22;15077;49.704;9.908;2023-02-18T02:02:38;13.50;78.00
27671;DHT22;15077;49.704;9.908;2023-02-18T02:05:07;13.50;78.00
27671;DHT22;15077;49.704;9.908;2023-02-18T02:07:33;13.50;78.00
27671;DHT22;15077;49.704;9.908;2023-02-18T02:10:00;13.50;78.10
27671;DHT22;15077;49.704;9.908;2023-02-18T02:35:22;13.50;78.10
27671;DHT22;15077;49.704;9.908;2023-02-18T02:38:17;13.50;78.40
27671;DHT22;15077;49.704;9.908;2023-02-18T02:41:06;13.50;78.50
27671;DHT22;15077;49.704;9.908;2023-02-18T02:43:57;13.50;78.40
27671;DHT22;15077;49.704;9.908;2023-02-18T02:46:50;13.50;78.40
27671;DHT22;15077;49.704;9.908;2023-02-18T02:52:21;13.50;78.10
27671;DHT22;15077;49.704;9.908;2023-02-18T02:54:51;13.50;78.50
27671;DHT22;15077;49.704;9.908;2023-02-18T02:59:48;13.50;78.20
27671;DHT22;15077;49.704;9.908;2023-02-18T03:03:02;13.50;78.30
27671;DHT22;15077;49.704;9.908;2023-02-18T03:11:23;13.50;78.20
27671;DHT22;15077;49.704;9.908;2023-02-18T03:19:44;13.50;78.10
27671;DHT22;15077;49.704;9.908;2023-02-18T03:22:40;13.50;78.10
27671;DHT22;15077;49.704;9.908;2023-02-18T03:25:12;13.50;78.10
27671;DHT22;15077;49.704;9.908;2023-02-18T03:27:45;13.50;77.90
27671;DHT22;15077;49.704;9.908;2023-02-18T03:30:35;13.50;78.00
27671;DHT22;15077;49.704;9.908;2023-02-18T03:33:11;13.50;78.20
27671;DHT22;15077;49.704;9.908;2023-02-18T03:35:42;13.60;78.00
27671;DHT22;15077;49.704;9.908;2023-02-18T03:38:23;13.60;78.00
27671;DHT22;15077;49.704;9.908;2023-02-18T03:40:56;13.60;78.20
27671;DHT22;15077;49.704;9.908;2023-02-18T03:43:22;13.50;78.00
27671;DHT22;15077;49.704;9.908;2023-02-18T03:45:48;13.50;78.10
27671;DHT22;15077;49.704;9.908;2023-02-18T03:48:14;13.50;78.10
27671;DHT22;15077;49.704;9.908;2023-02-18T03:50:40;13.50;78.10
27671;DHT22;15077;49.704;9.908;2023-02-18T03:53:06;13.50;78.10
27671;DHT22;15077;49.704;9.908;2023-02-18T03:55:32;13.50;78.10
27671;DHT22;15077;49.704;9.908;2023-02-18T03:57:58;13.50;78.30
27671;DHT22;15077;49.704;9.908;2023-02-18T04:00:24;13.50;78.20
27671;DHT22;15077;49.704;9.908;2023-02-18T04:02:49;13.50;78.20
27671;DHT22;15077;49.704;9.908;2023-02-18T04:05:16;13.50;78.30
27671;DHT22;15077;49.704;9.908;2023-02-18T04:07:42;13.50;78.30
27671;DHT22;15077;49.704;9.908;2023-02-18T04:10:11;13.50;78.40
27671;DHT22;15077;49.704;9.908;2023-02-18T04:12:37;13.50;78.40
27671;DHT22;15077;49.704;9.908;2023-02-18T04:15:05;13.50;78.40
27671;DHT22;15077;49.704;9.908;2023-02-18T04:17:32;13.50;78.40
27671;DHT22;15077;49.704;9.908;2023-02-18T04:19:59;13.50;78.50
27671;DHT22;15077;49.704;9.908;2023-02-18T04:22:25;13.50;78.50
27671;DHT22;15077;49.704;9.908;2023-02-18T04:24:51;13.50;78.50
27671;DHT22;15077;49.704;9.908;2023-02-18T04:27:16;13.50;78.50
27671;DHT22;15077;49.704;9.908;2023-02-18T04:29:42;13.40;78.50
27671;DHT22;15077;49.704;9.908;2023-02-18T04:32:08;13.40;78.50
27671;DHT22;15077;49.704;9.908;2023-02-18T04:34:35;13.40;78.50
27671;DHT22;15077;49.704;9.908;2023-02-18T04:37:00;13.40;78.50
27671;DHT22;15077;49.704;9.908;2023-02-18T04:39:26;13.40;78.50
27671;DHT22;15077;49.704;9.908;2023-02-18T04:41:52;13.40;78.50
27671;DHT22;15077;49.704;9.908;2023-02-18T04:44:17;13.40;78.50
27671;DHT22;15077;49.704;9.908;2023-02-18T04:46:43;13.40;78.50
27671;DHT22;15077;49.704;9.908;2023-02-18T04:49:09;13.40;78.50
27671;DHT22;15077;49.704;9.908;2023-02-18T04:51:34;13.40;78.60
27671;DHT22;15077;49.704;9.908;2023-02-18T04:54:03;13.40;78.60
27671;DHT22;15077;49.704;9.908;2023-02-18T04:56:30;13.40;78.60
27671;DHT22;15077;49.704;9.908;2023-02-18T04:58:56;13.40;78.60
27671;DHT22;15077;49.704;9.908;2023-02-18T05:01:22;13.40;78.70
27671;DHT22;15077;49.704;9.908;2023-02-18T05:03:49;13.40;78.70
27671;DHT22;15077;49.704;9.908;2023-02-18T05:06:15;13.40;78.70
27671;DHT22;15077;49.704;9.908;2023-02-18T05:08:41;13.40;78.70
27671;DHT22;15077;49.704;9.908;2023-02-18T05:11:07;13.40;78.70
27671;DHT22;15077;49.704;9.908;2023-02-18T05:13:34;13.40;78.70
27671;DHT22;15077;49.704;9.908;2023-02-18T05:16:00;13.40;78.80
27671;DHT22;15077;49.704;9.908;2023-02-18T05:18:25;13.30;78.70
27671;DHT22;15077;49.704;9.908;2023-02-18T05:20:51;13.30;78.80
27671;DHT22;15077;49.704;9.908;2023-02-18T05:23:17;13.30;78.80
27671;DHT22;15077;49.704;9.908;2023-02-18T05:25:44;13.30;78.70
27671;DHT22;15077;49.704;9.908;2023-02-18T05:28:10;13.30;78.70
27671;DHT22;15077;49.704;9.908;2023-02-18T05:30:36;13.30;78.80
27671;DHT22;15077;49.704;9.908;2023-02-18T05:33:01;13.30;78.80
27671;DHT22;15077;49.704;9.908;2023-02-18T05:35:27;13.30;78.80
27671;DHT22;15077;49.704;9.908;2023-02-18T05:37:53;13.30;78.80
27671;DHT22;15077;49.704;9.908;2023-02-18T05:40:18;13.30;78.90
27671;DHT22;15077;49.704;9.908;2023-02-18T05:42:44;13.30;78.90
27671;DHT22;15077;49.704;9.908;2023-02-18T05:45:10;13.30;78.90
27671;DHT22;15077;49.704;9.908;2023-02-18T05:47:36;13.30;78.90
27671;DHT22;15077;49.704;9.908;2023-02-18T05:50:02;13.30;78.90
27671;DHT22;15077;49.704;9.908;2023-02-18T05:52:28;13.30;79.00
27671;DHT22;15077;49.704;9.908;2023-02-18T05:54:54;13.30;79.00
27671;DHT22;15077;49.704;9.908;2023-02-18T05:57:21;13.30;79.00
27671;DHT22;15077;49.704;9.908;2023-02-18T05:59:46;13.30;79.00
27671;DHT22;15077;49.704;9.908;2023-02-18T06:02:12;13.30;79.00
27671;DHT22;15077;49.704;9.908;2023-02-18T06:04:38;13.30;79.00
27671;DHT22;15077;49.704;9.908;2023-02-18T06:07:05;13.30;79.00
27671;DHT22;15077;49.704;9.908;2023-02-18T06:09:31;13.30;79.00
27671;DHT22;15077;49.704;9.908;2023-02-18T06:11:57;13.30;78.90
27671;DHT22;15077;49.704;9.908;2023-02-18T06:14:23;13.30;79.50
27671;DHT22;15077;49.704;9.908;2023-02-18T06:16:48;13.30;78.90
27671;DHT22;15077;49.704;9.908;2023-02-18T06:19:14;13.30;78.80
27671;DHT22;15077;49.704;9.908;2023-02-18T06:21:40;13.30;78.80
27671;DHT22;15077;49.704;9.908;2023-02-18T06:24:06;13.30;78.80
27671;DHT22;15077;49.704;9.908;2023-02-18T06:26:32;13.30;78.70
27671;DHT22;15077;49.704;9.908;2023-02-18T06:28:58;13.30;78.70
27671;DHT22;15077;49.704;9.908;2023-02-18T06:31:24;13.30;78.60
27671;DHT22;15077;49.704;9.908;2023-02-18T06:33:50;13.30;78.50
27671;DHT22;15077;49.704;9.908;2023-02-18T06:36:15;13.30;78.50
27671;DHT22;15077;49.704;9.908;2023-02-18T06:38:42;13.30;78.40
27671;DHT22;15077;49.704;9.908;2023-02-18T06:41:10;13.30;78.30
27671;DHT22;15077;49.704;9.908;2023-02-18T06:43:37;13.30;78.20
27671;DHT22;15077;49.704;9.908;2023-02-18T06:46:04;13.30;78.10
27671;DHT22;15077;49.704;9.908;2023-02-18T06:48:30;13.30;78.00
27671;DHT22;15077;49.704;9.908;2023-02-18T06:50:56;13.30;77.80
27671;DHT22;15077;49.704;9.908;2023-02-18T06:53:22;13.30;77.80
27671;DHT22;15077;49.704;9.908;2023-02-18T06:55:48;13.20;77.70
27671;DHT22;15077;49.704;9.908;2023-02-18T06:58:14;13.20;77.50
27671;DHT22;15077;49.704;9.908;2023-02-18T07:00:40;13.20;77.40
27671;DHT22;15077;49.704;9.908;2023-02-18T07:03:07;13.20;77.30
27671;DHT22;15077;49.704;9.908;2023-02-18T07:05:33;13.20;77.10
27671;DHT22;15077;49.704;9.908;2023-02-18T07:07:58;13.20;77.10
27671;DHT22;15077;49.704;9.908;2023-02-18T07:10:24;13.20;77.00
27671;DHT22;15077;49.704;9.908;2023-02-18T07:12:50;13.20;76.90
27671;DHT22;15077;49.704;9.908;2023-02-18T07:15:16;13.20;77.00
27671;DHT22;15077;49.704;9.908;2023-02-18T07:17:42;13.20;77.00
27671;DHT22;15077;49.704;9.908;2023-02-18T07:20:08;13.20;76.90
27671;DHT22;15077;49.704;9.908;2023-02-18T07:22:34;13.20;76.90
27671;DHT22;15077;49.704;9.908;2023-02-18T07:25:00;13.20;76.90
27671;DHT22;15077;49.704;9.908;2023-02-18T07:27:25;13.20;76.90
27671;DHT22;15077;49.704;9.908;2023-02-18T07:29:51;13.20;76.90
27671;DHT22;15077;49.704;9.908;2023-02-18T07:32:19;13.20;76.80
27671;DHT22;15077;49.704;9.908;2023-02-18T07:34:44;13.20;76.90
27671;DHT22;15077;49.704;9.908;2023-02-18T07:37:10;13.20;76.90
27671;DHT22;15077;49.704;9.908;2023-02-18T07:39:40;13.20;76.90
27671;DHT22;15077;49.704;9.908;2023-02-18T07:42:08;13.20;76.90
27671;DHT22;15077;49.704;9.908;2023-02-18T07:44:35;13.20;76.90
27671;DHT22;15077;49.704;9.908;2023-02-18T07:47:02;13.20;76.90
27671;DHT22;15077;49.704;9.908;2023-02-18T07:49:30;13.20;77.00
27671;DHT22;15077;49.704;9.908;2023-02-18T07:51:56;13.20;77.00
27671;DHT22;15077;49.704;9.908;2023-02-18T07:54:22;13.30;77.00
27671;DHT22;15077;49.704;9.908;2023-02-18T07:56:48;13.30;77.10
27671;DHT22;15077;49.704;9.908;2023-02-18T07:59:14;13.30;77.10
27671;DHT22;15077;49.704;9.908;2023-02-18T08:01:41;13.30;77.20
27671;DHT22;15077;49.704;9.908;2023-02-18T08:04:07;13.30;77.30
27671;DHT22;15077;49.704;9.908;2023-02-18T08:06:35;13.30;77.40
27671;DHT22;15077;49.704;9.908;2023-02-18T08:09:03;13.30;77.40
27671;DHT22;15077;49.704;9.908;2023-02-18T08:11:30;13.30;77.40
27671;DHT22;15077;49.704;9.908;2023-02-18T08:13:56;13.30;77.40
27671;DHT22;15077;49.704;9.908;2023-02-18T08:16:22;13.40;77.30
27671;DHT22;15077;49.704;9.908;2023-02-18T08:18:49;13.40;77.40
27671;DHT22;15077;49.704;9.908;2023-02-18T08:21:17;13.40;77.40
27671;DHT22;15077;49.704;9.908;2023-02-18T08:23:45;13.40;77.40
27671;DHT22;15077;49.704;9.908;2023-02-18T08:26:11;13.40;77.40
27671;DHT22;15077;49.704;9.908;2023-02-18T08:28:38;13.50;77.30
27671;DHT22;15077;49.704;9.908;2023-02-18T08:31:04;13.50;77.30
27671;DHT22;15077;49.704;9.908;2023-02-18T08:33:30;13.50;77.20
27671;DHT22;15077;49.704;9.908;2023-02-18T08:35:57;13.50;77.10
27671;DHT22;15077;49.704;9.908;2023-02-18T08:38:23;13.50;77.60
27671;DHT22;15077;49.704;9.908;2023-02-18T08:40:50;13.60;77.00
27671;DHT22;15077;49.704;9.908;2023-02-18T08:43:25;13.60;76.90
27671;DHT22;15077;49.704;9.908;2023-02-18T08:45:50;13.60;76.90
27671;DHT22;15077;49.704;9.908;2023-02-18T08:48:16;13.60;76.80
27671;DHT22;15077;49.704;9.908;2023-02-18T08:50:42;13.60;76.80
27671;DHT22;15077;49.704;9.908;2023-02-18T08:53:07;13.60;76.80
27671;DHT22;15077;49.704;9.908;2023-02-18T08:55:34;13.70;76.70
27671;DHT22;15077;49.704;9.908;2023-02-18T08:58:00;13.70;76.70
27671;DHT22;15077;49.704;9.908;2023-02-18T09:00:26;13.70;77.20
27671;DHT22;15077;49.704;9.908;2023-02-18T09:02:52;13.70;76.70
27671;DHT22;15077;49.704;9.908;2023-02-18T09:05:18;13.70;76.70
27671;DHT22;15077;49.704;9.908;2023-02-18T09:07:43;13.70;76.60
27671;DHT22;15077;49.704;9.908;2023-02-18T09:10:09;13.70;76.60
27671;DHT22;15077;49.704;9.908;2023-02-18T09:12:35;13.70;76.60
27671;DHT22;15077;49.704;9.908;2023-02-18T09:15:02;13.70;77.20
27671;DHT22;15077;49.704;9.908;2023-02-18T09:17:29;13.70;76.60
27671;DHT22;15077;49.704;9.908;2023-02-18T09:19:55;13.70;76.50
27671;DHT22;15077;49.704;9.908;2023-02-18T09:22:21;13.80;76.50
27671;DHT22;15077;49.704;9.908;2023-02-18T09:24:47;13.80;77.10
27671;DHT22;15077;49.704;9.908;2023-02-18T09:27:12;13.80;76.50
27671;DHT22;15077;49.704;9.908;2023-02-18T09:29:39;13.80;76.60
27671;DHT22;15077;49.704;9.908;2023-02-18T09:32:07;13.80;76.60
27671;DHT22;15077;49.704;9.908;2023-02-18T09:34:34;13.90;76.60
27671;DHT22;15077;49.704;9.908;2023-02-18T09:37:01;13.80;76.60
27671;DHT22;15077;49.704;9.908;2023-02-18T09:39:27;13.90;76.70
27671;DHT22;15077;49.704;9.908;2023-02-18T09:41:58;13.90;77.30
27671;DHT22;15077;49.704;9.908;2023-02-18T09:44:34;14.00;76.90
27671;DHT22;15077;49.704;9.908;2023-02-18T09:49:39;14.00;76.80
27671;DHT22;15077;49.704;9.908;2023-02-18T09:52:16;14.10;76.30
27671;DHT22;15077;49.704;9.908;2023-02-18T09:54:45;14.10;76.90
27671;DHT22;15077;49.704;9.908;2023-02-18T10:00:21;14.20;75.80
27671;DHT22;15077;49.704;9.908;2023-02-18T10:02:56;14.20;75.80
27671;DHT22;15077;49.704;9.908;2023-02-18T10:05:24;14.30;75.80
27671;DHT22;15077;49.704;9.908;2023-02-18T10:07:55;14.30;75.60
27671;DHT22;15077;49.704;9.908;2023-02-18T10:12:57;14.40;74.90
27671;DHT22;15077;49.704;9.908;2023-02-18T10:15:29;14.40;74.60
27671;DHT22;15077;49.704;9.908;2023-02-18T10:17:57;14.50;74.20
27671;DHT22;15077;49.704;9.908;2023-02-18T10:20:27;14.50;74.20
27671;DHT22;15077;49.704;9.908;2023-02-18T10:22:57;14.60;74.10
27671;DHT22;15077;49.704;9.908;2023-02-18T10:25:25;14.60;73.80
27671;DHT22;15077;49.704;9.908;2023-02-18T10:27:53;14.60;73.60
27671;DHT22;15077;49.704;9.908;2023-02-18T10:30:45;14.60;73.30
27671;DHT22;15077;49.704;9.908;2023-02-18T10:39:01;14.70;72.70
27671;DHT22;15077;49.704;9.908;2023-02-18T10:41:42;14.70;72.70
27671;DHT22;15077;49.704;9.908;2023-02-18T10:44:55;14.70;72.50
27671;DHT22;15077;49.704;9.908;2023-02-18T10:47:36;14.70;72.00
27671;DHT22;15077;49.704;9.908;2023-02-18T10:50:10;14.80;72.20
27671;DHT22;15077;49.704;9.908;2023-02-18T10:52:42;14.80;71.40
27671;DHT22;15077;49.704;9.908;2023-02-18T10:55:12;14.80;71.90
27671;DHT22;15077;49.704;9.908;2023-02-18T10:57:51;14.80;72.10
27671;DHT22;15077;49.704;9.908;2023-02-18T11:00:24;14.80;71.70
27671;DHT22;15077;49.704;9.908;2023-02-18T11:03:20;14.80;71.80
27671;DHT22;15077;49.704;9.908;2023-02-18T11:05:50;14.80;71.20
27671;DHT22;15077;49.704;9.908;2023-02-18T11:08:26;14.90;71.40
27671;DHT22;15077;49.704;9.908;2023-02-18T11:10:54;14.90;70.70
27671;DHT22;15077;49.704;9.908;2023-02-18T11:13:27;14.90;70.60
27671;DHT22;15077;49.704;9.908;2023-02-18T11:16:00;15.00;70.60
27671;DHT22;15077;49.704;9.908;2023-02-18T11:18:44;15.00;69.40
27671;DHT22;15077;49.704;9.908;2023-02-18T11:21:35;15.10;69.50
27671;DHT22;15077;49.704;9.908;2023-02-18T11:24:08;15.20;70.60
27671;DHT22;15077;49.704;9.908;2023-02-18T11:26:39;15.20;69.70
27671;DHT22;15077;49.704;9.908;2023-02-18T11:29:20;15.30;69.20
27671;DHT22;15077;49.704;9.908;2023-02-18T11:31:54;15.30;69.70
27671;DHT22;15077;49.704;9.908;2023-02-18T11:34:24;15.40;69.30
27671;DHT22;15077;49.704;9.908;2023-02-18T11:36:53;15.40;68.80
27671;DHT22;15077;49.704;9.908;2023-02-18T11:39:22;15.50;69.30
27671;DHT22;15077;49.704;9.908;2023-02-18T11:42:02;15.50;68.90
27671;DHT22;15077;49.704;9.908;2023-02-18T11:44:40;15.50;68.60
27671;DHT22;15077;49.704;9.908;2023-02-18T11:49:39;15.50;68.60
27671;DHT22;15077;49.704;9.908;2023-02-18T11:52:19;15.60;67.90
27671;DHT22;15077;49.704;9.908;2023-02-18T11:57:31;15.60;67.10
27671;DHT22;15077;49.704;9.908;2023-02-18T12:00:00;15.60;68.30
27671;DHT22;15077;49.704;9.908;2023-02-18T12:02:37;15.60;67.30
27671;DHT22;15077;49.704;9.908;2023-02-18T12:05:24;15.60;67.30
27671;DHT22;15077;49.704;9.908;2023-02-18T12:07:58;15.60;66.80
27671;DHT22;15077;49.704;9.908;2023-02-18T12:10:45;15.60;67.50
27671;DHT22;15077;49.704;9.908;2023-02-18T12:13:30;15.70;66.80
27671;DHT22;15077;49.704;9.908;2023-02-18T12:22:19;15.80;65.20
27671;DHT22;15077;49.704;9.908;2023-02-18T12:36:29;15.80;63.80
27671;DHT22;15077;49.704;9.908;2023-02-18T12:39:14;15.80;64.40
27671;DHT22;15077;49.704;9.908;2023-02-18T13:08:30;15.80;63.30
27671;DHT22;15077;49.704;9.908;2023-02-18T13:11:28;15.80;63.00
27671;DHT22;15077;49.704;9.908;2023-02-18T13:14:09;15.70;62.20
27671;DHT22;15077;49.704;9.908;2023-02-18T13:16:43;15.70;63.10
27671;DHT22;15077;49.704;9.908;2023-02-18T13:19:19;15.70;62.70
27671;DHT22;15077;49.704;9.908;2023-02-18T13:21:51;15.70;62.60
27671;DHT22;15077;49.704;9.908;2023-02-18T13:24:40;15.70;62.70
27671;DHT22;15077;49.704;9.908;2023-02-18T13:27:31;15.60;62.40
27671;DHT22;15077;49.704;9.908;2023-02-18T13:30:08;15.60;63.30
27671;DHT22;15077;49.704;9.908;2023-02-18T13:38:50;15.70;63.50
27671;DHT22;15077;49.704;9.908;2023-02-18T13:41:21;15.70;62.60
27671;DHT22;15077;49.704;9.908;2023-02-18T13:43:47;15.80;62.80
27671;DHT22;15077;49.704;9.908;2023-02-18T13:49:10;15.70;63.20
27671;DHT22;15077;49.704;9.908;2023-02-18T13:51:44;15.70;63.50
27671;DHT22;15077;49.704;9.908;2023-02-18T13:57:02;15.70;62.40
27671;DHT22;15077;49.704;9.908;2023-02-18T13:59:48;15.70;63.00
27671;DHT22;15077;49.704;9.908;2023-02-18T14:10:25;15.60;62.70
27671;DHT22;15077;49.704;9.908;2023-02-18T14:40:20;15.30;65.10
27671;DHT22;15077;49.704;9.908;2023-02-18T14:48:47;15.20;65.60
27671;DHT22;15077;49.704;9.908;2023-02-18T14:51:20;15.10;65.70
27671;DHT22;15077;49.704;9.908;2023-02-18T14:53:47;15.10;65.70
27671;DHT22;15077;49.704;9.908;2023-02-18T14:56:17;15.10;66.00
27671;DHT22;15077;49.704;9.908;2023-02-18T14:58:51;15.00;65.80
27671;DHT22;15077;49.704;9.908;2023-02-18T15:01:29;15.00;65.70
27671;DHT22;15077;49.704;9.908;2023-02-18T15:03:57;15.00;65.50
27671;DHT22;15077;49.704;9.908;2023-02-18T15:06:34;15.00;65.50
27671;DHT22;15077;49.704;9.908;2023-02-18T15:09:17;15.00;65.20
27671;DHT22;15077;49.704;9.908;2023-02-18T15:14:36;15.00;65.70
27671;DHT22;15077;49.704;9.908;2023-02-18T15:17:06;15.00;65.90
27671;DHT22;15077;49.704;9.908;2023-02-18T15:19:45;15.00;66.00
27671;DHT22;15077;49.704;9.908;2023-02-18T15:22:18;14.90;66.00
27671;DHT22;15077;49.704;9.908;2023-02-18T15:24:47;14.90;66.00
27671;DHT22;15077;49.704;9.908;2023-02-18T15:27:21;14.90;66.00
27671;DHT22;15077;49.704;9.908;2023-02-18T15:29:52;14.90;66.10
27671;DHT22;15077;49.704;9.908;2023-02-18T15:32:27;14.90;66.20
27671;DHT22;15077;49.704;9.908;2023-02-18T15:35:00;14.90;66.40
27671;DHT22;15077;49.704;9.908;2023-02-18T15:37:29;14.90;66.50
27671;DHT22;15077;49.704;9.908;2023-02-18T15:39:55;14.80;66.70
27671;DHT22;15077;49.704;9.908;2023-02-18T15:42:29;14.80;66.50
27671;DHT22;15077;49.704;9.908;2023-02-18T15:47:45;14.80;67.00
27671;DHT22;15077;49.704;9.908;2023-02-18T15:50:19;14.70;67.60
27671;DHT22;15077;49.704;9.908;2023-02-18T15:52:48;14.70;67.20
27671;DHT22;15077;49.704;9.908;2023-02-18T15:55:37;14.60;67.20
27671;DHT22;15077;49.704;9.908;2023-02-18T15:58:11;14.50;67.30
27671;DHT22;15077;49.704;9.908;2023-02-18T16:01:04;14.50;67.50
27671;DHT22;15077;49.704;9.908;2023-02-18T16:03:52;14.50;67.60
27671;DHT22;15077;49.704;9.908;2023-02-18T16:09:18;14.40;67.90
27671;DHT22;15077;49.704;9.908;2023-02-18T16:12:00;14.30;67.90
27671;DHT22;15077;49.704;9.908;2023-02-18T16:14:44;14.30;68.00
27671;DHT22;15077;49.704;9.908;2023-02-18T16:17:16;14.20;68.00
27671;DHT22;15077;49.704;9.908;2023-02-18T16:22:45;14.10;68.10
27671;DHT22;15077;49.704;9.908;2023-02-18T16:25:15;14.10;68.30
27671;DHT22;15077;49.704;9.908;2023-02-18T16:28:03;14.10;68.30
27671;DHT22;15077;49.704;9.908;2023-02-18T16:30:32;14.00;68.40
27671;DHT22;15077;49.704;9.908;2023-02-18T16:32:59;14.00;68.60
27671;DHT22;15077;49.704;9.908;2023-02-18T16:35:28;14.00;68.70
27671;DHT22;15077;49.704;9.908;2023-02-18T16:37:56;13.90;68.80
27671;DHT22;15077;49.704;9.908;2023-02-18T16:40:31;13.90;69.20
27671;DHT22;15077;49.704;9.908;2023-02-18T16:46:06;13.80;69.30
27671;DHT22;15077;49.704;9.908;2023-02-18T16:48:50;13.80;69.40
27671;DHT22;15077;49.704;9.908;2023-02-18T16:51:30;13.70;69.30
27671;DHT22;15077;49.704;9.908;2023-02-18T16:53:58;13.80;69.60
27671;DHT22;15077;49.704;9.908;2023-02-18T16:56:27;13.80;69.60
27671;DHT22;15077;49.704;9.908;2023-02-18T16:58:56;13.70;69.60
27671;DHT22;15077;49.704;9.908;2023-02-18T17:01:26;13.70;70.50
27671;DHT22;15077;49.704;9.908;2023-02-18T17:03:56;13.70;70.60
27671;DHT22;15077;49.704;9.908;2023-02-18T17:06:27;13.60;70.10
27671;DHT22;15077;49.704;9.908;2023-02-18T17:08:54;13.60;70.20
27671;DHT22;15077;49.704;9.908;2023-02-18T17:11:23;13.60;70.30
27671;DHT22;15077;49.704;9.908;2023-02-18T17:13:52;13.60;70.50
27671;DHT22;15077;49.704;9.908;2023-02-18T17:16:19;13.50;71.00
27671;DHT22;15077;49.704;9.908;2023-02-18T17:18:45;13.50;71.20
27671;DHT22;15077;49.704;9.908;2023-02-18T17:21:18;13.50;70.70
27671;DHT22;15077;49.704;9.908;2023-02-18T17:23:45;13.50;71.00
27671;DHT22;15077;49.704;9.908;2023-02-18T17:26:25;13.50;71.00
27671;DHT22;15077;49.704;9.908;2023-02-18T17:28:54;13.40;71.40
27671;DHT22;15077;49.704;9.908;2023-02-18T17:31:35;13.40;71.10
27671;DHT22;15077;49.704;9.908;2023-02-18T17:34:08;13.40;71.40
27671;DHT22;15077;49.704;9.908;2023-02-18T17:36:38;13.40;71.30
27671;DHT22;15077;49.704;9.908;2023-02-18T17:39:13;13.40;71.30
27671;DHT22;15077;49.704;9.908;2023-02-18T17:41:42;13.30;71.50
27671;DHT22;15077;49.704;9.908;2023-02-18T17:44:19;13.30;71.40
27671;DHT22;15077;49.704;9.908;2023-02-18T17:46:47;13.40;71.70
27671;DHT22;15077;49.704;9.908;2023-02-18T17:49:14;13.30;71.50
27671;DHT22;15077;49.704;9.908;2023-02-18T17:51:41;13.30;71.50
27671;DHT22;15077;49.704;9.908;2023-02-18T17:54:18;13.30;71.70
27671;DHT22;15077;49.704;9.908;2023-02-18T17:56:47;13.30;71.80
27671;DHT22;15077;49.704;9.908;2023-02-18T17:59:12;13.20;71.60
27671;DHT22;15077;49.704;9.908;2023-02-18T18:01:39;13.20;71.70
27671;DHT22;15077;49.704;9.908;2023-02-18T18:04:17;13.20;71.70
27671;DHT22;15077;49.704;9.908;2023-02-18T18:06:44;13.20;71.80
27671;DHT22;15077;49.704;9.908;2023-02-18T18:09:11;13.20;71.80
27671;DHT22;15077;49.704;9.908;2023-02-18T18:11:37;13.20;71.80
27671;DHT22;15077;49.704;9.908;2023-02-18T18:14:03;13.20;71.80
27671;DHT22;15077;49.704;9.908;2023-02-18T18:16:29;13.20;71.80
27671;DHT22;15077;49.704;9.908;2023-02-18T18:18:55;13.20;71.80
27671;DHT22;15077;49.704;9.908;2023-02-18T18:21:32;13.20;71.80
27671;DHT22;15077;49.704;9.908;2023-02-18T18:23:59;13.20;71.80
27671;DHT22;15077;49.704;9.908;2023-02-18T18:26:26;13.20;71.80
27671;DHT22;15077;49.704;9.908;2023-02-18T18:28:51;13.10;71.80
27671;DHT22;15077;49.704;9.908;2023-02-18T18:31:19;13.10;71.80
27671;DHT22;15077;49.704;9.908;2023-02-18T18:33:46;13.10;71.70
27671;DHT22;15077;49.704;9.908;2023-02-18T18:36:16;13.10;71.70
27671;DHT22;15077;49.704;9.908;2023-02-18T18:38:44;13.10;71.70
27671;DHT22;15077;49.704;9.908;2023-02-18T18:41:16;13.10;71.70
27671;DHT22;15077;49.704;9.908;2023-02-18T18:43:43;13.10;71.70